sensor_id;sensor_type;location;lat;lon;timestamp;P1;durP1;ratioP1;P2;durP2;ratioP2
28629;SDS011;15817;42.130;24.762;2023-03-12T00:01:53;4.85;;;1.30;;
28629;SDS011;15817;42.130;24.762;2023-03-12T00:04:19;1.02;;;0.75;;
28629;SDS011;15817;42.130;24.762;2023-03-12T00:06:45;1.45;;;0.85;;
28629;SDS011;15817;42.130;24.762;2023-03-12T00:09:11;1.50;;;1.05;;
28629;SDS011;15817;42.130;24.762;2023-03-12T00:11:37;2.70;;;1.00;;
28629;SDS011;15817;42.130;24.762;2023-03-12T00:14:02;3.25;;;1.02;;
28629;SDS011;15817;42.130;24.762;2023-03-12T00:16:28;2.10;;;0.90;;
28629;SDS011;15817;42.130;24.762;2023-03-12T00:18:54;4.18;;;1.02;;
28629;SDS011;15817;42.130;24.762;2023-03-12T00:21:23;1.63;;;0.88;;
28629;SDS011;15817;42.130;24.762;2023-03-12T00:23:49;1.88;;;1.00;;
28629;SDS011;15817;42.130;24.762;2023-03-12T00:26:15;4.32;;;1.02;;
28629;SDS011;15817;42.130;24.762;2023-03-12T00:28:42;1.65;;;1.05;;
28629;SDS011;15817;42.130;24.762;2023-03-12T00:31:12;1.88;;;0.98;;
28629;SDS011;15817;42.130;24.762;2023-03-12T00:33:38;1.65;;;1.20;;
28629;SDS011;15817;42.130;24.762;2023-03-12T00:36:04;2.75;;;1.10;;
28629;SDS011;15817;42.130;24.762;2023-03-12T00:38:30;2.15;;;1.10;;
28629;SDS011;15817;42.130;24.762;2023-03-12T00:40:56;2.13;;;0.90;;
28629;SDS011;15817;42.130;24.762;2023-03-12T00:43:22;2.78;;;1.00;;
28629;SDS011;15817;42.130;24.762;2023-03-12T00:45:48;2.67;;;0.93;;
28629;SDS011;15817;42.130;24.762;2023-03-12T00:48:33;2.22;;;1.10;;
28629;SDS011;15817;42.130;24.762;2023-03-12T00:50:59;1.15;;;0.93;;
28629;SDS011;15817;42.130;24.762;2023-03-12T00:53:25;3.58;;;1.25;;
28629;SDS011;15817;42.130;24.762;2023-03-12T00:55:51;2.38;;;1.05;;
28629;SDS011;15817;42.130;24.762;2023-03-12T00:58:19;8.45;;;1.67;;
28629;SDS011;15817;42.130;24.762;2023-03-12T01:00:45;3.80;;;1.83;;
28629;SDS011;15817;42.130;24.762;2023-03-12T01:03:11;4.07;;;1.23;;
28629;SDS011;15817;42.130;24.762;2023-03-12T01:05:37;1.90;;;1.00;;
28629;SDS011;15817;42.130;24.762;2023-03-12T01:08:05;5.22;;;1.00;;
28629;SDS011;15817;42.130;24.762;2023-03-12T01:10:33;4.50;;;1.33;;
28629;SDS011;15817;42.130;24.762;2023-03-12T01:12:59;7.38;;;1.33;;
28629;SDS011;15817;42.130;24.762;2023-03-12T01:15:25;5.63;;;0.90;;
28629;SDS011;15817;42.130;24.762;2023-03-12T01:17:52;6.40;;;1.13;;
28629;SDS011;15817;42.130;24.762;2023-03-12T01:20:18;5.50;;;1.27;;
28629;SDS011;15817;42.130;24.762;2023-03-12T01:22:44;4.05;;;1.50;;
28629;SDS011;15817;42.130;24.762;2023-03-12T01:25:10;4.63;;;1.55;;
28629;SDS011;15817;42.130;24.762;2023-03-12T01:27:36;2.63;;;1.73;;
28629;SDS011;15817;42.130;24.762;2023-03-12T01:30:03;5.72;;;1.30;;
28629;SDS011;15817;42.130;24.762;2023-03-12T01:32:29;4.70;;;1.30;;
28629;SDS011;15817;42.130;24.762;2023-03-12T01:35:03;5.75;;;1.30;;
28629;SDS011;15817;42.130;24.762;2023-03-12T01:37:30;3.40;;;1.40;;
28629;SDS011;15817;42.130;24.762;2023-03-12T01:39:56;4.22;;;1.73;;
28629;SDS011;15817;42.130;24.762;2023-03-12T01:42:22;3.28;;;1.45;;
28629;SDS011;15817;42.130;24.762;2023-03-12T01:44:55;4.38;;;1.50;;
28629;SDS011;15817;42.130;24.762;2023-03-12T01:47:27;5.93;;;1.88;;
28629;SDS011;15817;42.130;24.762;2023-03-12T01:49:56;3.60;;;1.73;;
28629;SDS011;15817;42.130;24.762;2023-03-12T01:52:26;3.67;;;1.45;;
28629;SDS011;15817;42.130;24.762;2023-03-12T01:58:01;4.18;;;1.90;;
28629;SDS011;15817;42.130;24.762;2023-03-12T02:00:23;4.63;;;1.80;;
28629;SDS011;15817;42.130;24.762;2023-03-12T02:02:53;7.78;;;2.25;;
28629;SDS011;15817;42.130;24.762;2023-03-12T02:05:29;9.73;;;2.45;;
28629;SDS011;15817;42.130;24.762;2023-03-12T02:08:09;5.30;;;1.90;;
28629;SDS011;15817;42.130;24.762;2023-03-12T02:10:37;5.55;;;2.17;;
28629;SDS011;15817;42.130;24.762;2023-03-12T02:13:03;7.30;;;2.08;;
28629;SDS011;15817;42.130;24.762;2023-03-12T02:15:29;4.50;;;2.05;;
28629;SDS011;15817;42.130;24.762;2023-03-12T02:17:55;2.83;;;2.17;;
28629;SDS011;15817;42.130;24.762;2023-03-12T02:20:27;4.20;;;2.15;;
28629;SDS011;15817;42.130;24.762;2023-03-12T02:23:11;8.23;;;2.30;;
28629;SDS011;15817;42.130;24.762;2023-03-12T02:25:45;8.13;;;2.30;;
28629;SDS011;15817;42.130;24.762;2023-03-12T02:28:15;2.78;;;2.10;;
28629;SDS011;15817;42.130;24.762;2023-03-12T02:30:44;4.15;;;2.15;;
28629;SDS011;15817;42.130;24.762;2023-03-12T02:33:13;5.45;;;2.78;;
28629;SDS011;15817;42.130;24.762;2023-03-12T02:35:42;2.67;;;2.20;;
28629;SDS011;15817;42.130;24.762;2023-03-12T02:38:31;3.17;;;2.20;;
28629;SDS011;15817;42.130;24.762;2023-03-12T02:41:05;5.55;;;1.90;;
28629;SDS011;15817;42.130;24.762;2023-03-12T02:43:43;3.20;;;2.28;;
28629;SDS011;15817;42.130;24.762;2023-03-12T02:46:14;8.25;;;2.28;;
28629;SDS011;15817;42.130;24.762;2023-03-12T02:48:40;3.53;;;2.30;;
28629;SDS011;15817;42.130;24.762;2023-03-12T02:51:06;6.45;;;2.30;;
28629;SDS011;15817;42.130;24.762;2023-03-12T02:53:32;5.25;;;2.30;;
28629;SDS011;15817;42.130;24.762;2023-03-12T02:55:58;5.65;;;2.45;;
28629;SDS011;15817;42.130;24.762;2023-03-12T02:58:24;3.08;;;2.53;;
28629;SDS011;15817;42.130;24.762;2023-03-12T03:00:50;4.47;;;2.45;;
28629;SDS011;15817;42.130;24.762;2023-03-12T03:03:16;3.42;;;2.10;;
28629;SDS011;15817;42.130;24.762;2023-03-12T03:05:42;10.35;;;2.88;;
28629;SDS011;15817;42.130;24.762;2023-03-12T03:08:08;10.35;;;2.53;;
28629;SDS011;15817;42.130;24.762;2023-03-12T03:10:34;2.42;;;1.95;;
28629;SDS011;15817;42.130;24.762;2023-03-12T03:12:59;4.28;;;2.35;;
28629;SDS011;15817;42.130;24.762;2023-03-12T03:15:25;4.70;;;2.17;;
28629;SDS011;15817;42.130;24.762;2023-03-12T03:17:52;4.20;;;2.35;;
28629;SDS011;15817;42.130;24.762;2023-03-12T03:20:20;3.50;;;2.28;;
28629;SDS011;15817;42.130;24.762;2023-03-12T03:22:46;7.75;;;2.30;;
28629;SDS011;15817;42.130;24.762;2023-03-12T03:25:12;3.03;;;2.03;;
28629;SDS011;15817;42.130;24.762;2023-03-12T03:27:38;5.63;;;2.63;;
28629;SDS011;15817;42.130;24.762;2023-03-12T03:30:05;3.08;;;2.00;;
28629;SDS011;15817;42.130;24.762;2023-03-12T03:32:37;5.25;;;2.15;;
28629;SDS011;15817;42.130;24.762;2023-03-12T03:35:03;6.65;;;2.17;;
28629;SDS011;15817;42.130;24.762;2023-03-12T03:37:29;4.70;;;1.90;;
28629;SDS011;15817;42.130;24.762;2023-03-12T03:39:55;3.15;;;2.05;;
28629;SDS011;15817;42.130;24.762;2023-03-12T03:42:21;2.40;;;1.98;;
28629;SDS011;15817;42.130;24.762;2023-03-12T03:44:47;5.15;;;2.00;;
28629;SDS011;15817;42.130;24.762;2023-03-12T03:47:13;2.17;;;1.90;;
28629;SDS011;15817;42.130;24.762;2023-03-12T03:49:39;2.75;;;1.70;;
28629;SDS011;15817;42.130;24.762;2023-03-12T03:52:05;2.33;;;1.73;;
28629;SDS011;15817;42.130;24.762;2023-03-12T03:54:34;3.72;;;1.63;;
28629;SDS011;15817;42.130;24.762;2023-03-12T03:57:01;4.32;;;2.15;;
28629;SDS011;15817;42.130;24.762;2023-03-12T04:01:57;3.72;;;1.38;;
28629;SDS011;15817;42.130;24.762;2023-03-12T04:04:24;5.80;;;2.10;;
28629;SDS011;15817;42.130;24.762;2023-03-12T04:06:50;1.85;;;1.60;;
28629;SDS011;15817;42.130;24.762;2023-03-12T04:09:16;4.40;;;2.03;;
28629;SDS011;15817;42.130;24.762;2023-03-12T04:11:42;4.15;;;1.90;;
28629;SDS011;15817;42.130;24.762;2023-03-12T04:14:10;4.80;;;1.48;;
28629;SDS011;15817;42.130;24.762;2023-03-12T04:16:38;2.67;;;1.75;;
28629;SDS011;15817;42.130;24.762;2023-03-12T04:19:05;3.42;;;1.63;;
28629;SDS011;15817;42.130;24.762;2023-03-12T04:21:31;4.82;;;1.88;;
28629;SDS011;15817;42.130;24.762;2023-03-12T04:23:57;2.88;;;1.75;;
28629;SDS011;15817;42.130;24.762;2023-03-12T04:26:27;1.50;;;1.40;;
28629;SDS011;15817;42.130;24.762;2023-03-12T04:28:54;2.05;;;1.58;;
28629;SDS011;15817;42.130;24.762;2023-03-12T04:31:20;2.95;;;1.65;;
28629;SDS011;15817;42.130;24.762;2023-03-12T04:33:49;3.35;;;1.65;;
28629;SDS011;15817;42.130;24.762;2023-03-12T04:36:16;11.40;;;2.50;;
28629;SDS011;15817;42.130;24.762;2023-03-12T04:38:48;4.53;;;2.10;;
28629;SDS011;15817;42.130;24.762;2023-03-12T04:41:16;4.15;;;1.90;;
28629;SDS011;15817;42.130;24.762;2023-03-12T04:43:47;3.78;;;1.75;;
28629;SDS011;15817;42.130;24.762;2023-03-12T04:46:17;6.22;;;1.60;;
28629;SDS011;15817;42.130;24.762;2023-03-12T04:48:43;4.22;;;2.15;;
28629;SDS011;15817;42.130;24.762;2023-03-12T04:51:10;3.38;;;1.88;;
28629;SDS011;15817;42.130;24.762;2023-03-12T04:53:36;6.82;;;1.80;;
28629;SDS011;15817;42.130;24.762;2023-03-12T04:56:07;3.72;;;1.73;;
28629;SDS011;15817;42.130;24.762;2023-03-12T04:58:33;4.30;;;1.50;;
28629;SDS011;15817;42.130;24.762;2023-03-12T05:01:00;6.95;;;2.33;;
28629;SDS011;15817;42.130;24.762;2023-03-12T05:03:26;7.20;;;2.00;;
28629;SDS011;15817;42.130;24.762;2023-03-12T05:05:52;4.30;;;1.60;;
28629;SDS011;15817;42.130;24.762;2023-03-12T05:08:21;4.07;;;1.38;;
28629;SDS011;15817;42.130;24.762;2023-03-12T05:10:48;5.55;;;1.88;;
28629;SDS011;15817;42.130;24.762;2023-03-12T05:13:16;3.30;;;1.60;;
28629;SDS011;15817;42.130;24.762;2023-03-12T05:15:45;2.47;;;1.83;;
28629;SDS011;15817;42.130;24.762;2023-03-12T05:18:12;6.03;;;1.60;;
28629;SDS011;15817;42.130;24.762;2023-03-12T05:20:41;1.75;;;1.33;;
28629;SDS011;15817;42.130;24.762;2023-03-12T05:23:07;7.05;;;1.80;;
28629;SDS011;15817;42.130;24.762;2023-03-12T05:25:38;3.88;;;1.73;;
28629;SDS011;15817;42.130;24.762;2023-03-12T05:28:10;2.92;;;2.10;;
28629;SDS011;15817;42.130;24.762;2023-03-12T05:30:41;5.50;;;1.80;;
28629;SDS011;15817;42.130;24.762;2023-03-12T05:33:10;3.67;;;1.55;;
28629;SDS011;15817;42.130;24.762;2023-03-12T05:35:39;4.30;;;1.75;;
28629;SDS011;15817;42.130;24.762;2023-03-12T05:38:05;7.40;;;2.10;;
28629;SDS011;15817;42.130;24.762;2023-03-12T05:40:41;8.40;;;2.40;;
28629;SDS011;15817;42.130;24.762;2023-03-12T05:43:11;3.85;;;1.60;;
28629;SDS011;15817;42.130;24.762;2023-03-12T05:45:37;1.70;;;1.60;;
28629;SDS011;15817;42.130;24.762;2023-03-12T05:48:03;2.95;;;1.52;;
28629;SDS011;15817;42.130;24.762;2023-03-12T05:50:32;4.45;;;1.70;;
28629;SDS011;15817;42.130;24.762;2023-03-12T05:52:58;2.40;;;1.30;;
28629;SDS011;15817;42.130;24.762;2023-03-12T05:55:24;2.58;;;1.52;;
28629;SDS011;15817;42.130;24.762;2023-03-12T05:57:52;2.38;;;1.70;;
28629;SDS011;15817;42.130;24.762;2023-03-12T06:00:18;6.70;;;1.65;;
28629;SDS011;15817;42.130;24.762;2023-03-12T06:02:59;2.20;;;1.50;;
28629;SDS011;15817;42.130;24.762;2023-03-12T06:05:28;2.00;;;1.50;;
28629;SDS011;15817;42.130;24.762;2023-03-12T06:07:58;3.08;;;1.70;;
28629;SDS011;15817;42.130;24.762;2023-03-12T06:10:24;1.40;;;1.30;;
28629;SDS011;15817;42.130;24.762;2023-03-12T06:12:59;11.00;;;2.15;;
28629;SDS011;15817;42.130;24.762;2023-03-12T06:15:35;3.25;;;1.42;;
28629;SDS011;15817;42.130;24.762;2023-03-12T06:18:04;5.63;;;1.50;;
28629;SDS011;15817;42.130;24.762;2023-03-12T06:20:39;2.05;;;1.55;;
28629;SDS011;15817;42.130;24.762;2023-03-12T06:23:16;3.17;;;1.30;;
28629;SDS011;15817;42.130;24.762;2023-03-12T06:25:51;2.35;;;1.77;;
28629;SDS011;15817;42.130;24.762;2023-03-12T06:29:03;6.15;;;1.73;;
28629;SDS011;15817;42.130;24.762;2023-03-12T06:31:52;5.28;;;1.30;;
28629;SDS011;15817;42.130;24.762;2023-03-12T06:34:36;2.38;;;1.70;;
28629;SDS011;15817;42.130;24.762;2023-03-12T06:37:02;3.25;;;1.13;;
28629;SDS011;15817;42.130;24.762;2023-03-12T06:39:28;1.58;;;1.20;;
28629;SDS011;15817;42.130;24.762;2023-03-12T06:41:54;3.10;;;1.13;;
28629;SDS011;15817;42.130;24.762;2023-03-12T06:44:20;2.25;;;1.52;;
28629;SDS011;15817;42.130;24.762;2023-03-12T06:46:46;3.95;;;1.17;;
28629;SDS011;15817;42.130;24.762;2023-03-12T06:49:12;1.55;;;1.00;;
28629;SDS011;15817;42.130;24.762;2023-03-12T06:51:39;1.20;;;1.10;;
28629;SDS011;15817;42.130;24.762;2023-03-12T07:00:43;2.00;;;1.10;;
28629;SDS011;15817;42.130;24.762;2023-03-12T07:03:29;3.22;;;0.88;;
28629;SDS011;15817;42.130;24.762;2023-03-12T07:05:56;7.72;;;1.13;;
28629;SDS011;15817;42.130;24.762;2023-03-12T07:08:22;5.50;;;1.27;;
28629;SDS011;15817;42.130;24.762;2023-03-12T07:10:56;3.65;;;1.92;;
28629;SDS011;15817;42.130;24.762;2023-03-12T07:13:22;3.92;;;1.23;;
28629;SDS011;15817;42.130;24.762;2023-03-12T07:15:48;4.63;;;1.00;;
28629;SDS011;15817;42.130;24.762;2023-03-12T07:18:14;1.90;;;1.10;;
28629;SDS011;15817;42.130;24.762;2023-03-12T07:20:41;2.38;;;0.90;;
28629;SDS011;15817;42.130;24.762;2023-03-12T07:23:13;6.57;;;1.70;;
28629;SDS011;15817;42.130;24.762;2023-03-12T07:25:40;2.65;;;1.33;;
28629;SDS011;15817;42.130;24.762;2023-03-12T07:28:10;5.28;;;1.50;;
28629;SDS011;15817;42.130;24.762;2023-03-12T07:30:39;6.97;;;1.00;;
28629;SDS011;15817;42.130;24.762;2023-03-12T07:33:07;2.03;;;1.05;;
28629;SDS011;15817;42.130;24.762;2023-03-12T07:36:02;3.50;;;0.98;;
28629;SDS011;15817;42.130;24.762;2023-03-12T07:38:28;2.83;;;0.80;;
28629;SDS011;15817;42.130;24.762;2023-03-12T07:41:06;2.22;;;1.00;;
28629;SDS011;15817;42.130;24.762;2023-03-12T07:43:38;3.35;;;1.10;;
28629;SDS011;15817;42.130;24.762;2023-03-12T07:46:12;2.10;;;1.08;;
28629;SDS011;15817;42.130;24.762;2023-03-12T07:48:37;3.70;;;1.38;;
28629;SDS011;15817;42.130;24.762;2023-03-12T07:51:04;2.45;;;1.17;;
28629;SDS011;15817;42.130;24.762;2023-03-12T07:53:30;3.90;;;1.35;;
28629;SDS011;15817;42.130;24.762;2023-03-12T07:55:56;3.83;;;1.10;;
28629;SDS011;15817;42.130;24.762;2023-03-12T07:58:22;1.20;;;1.10;;
28629;SDS011;15817;42.130;24.762;2023-03-12T08:00:48;6.07;;;1.05;;
28629;SDS011;15817;42.130;24.762;2023-03-12T08:03:14;4.65;;;1.10;;
28629;SDS011;15817;42.130;24.762;2023-03-12T08:06:01;2.40;;;1.08;;
28629;SDS011;15817;42.130;24.762;2023-03-12T08:08:28;3.50;;;0.93;;
28629;SDS011;15817;42.130;24.762;2023-03-12T08:10:55;1.00;;;0.90;;
28629;SDS011;15817;42.130;24.762;2023-03-12T08:13:28;0.80;;;0.80;;
28629;SDS011;15817;42.130;24.762;2023-03-12T08:16:34;1.63;;;1.00;;
28629;SDS011;15817;42.130;24.762;2023-03-12T08:26:47;1.35;;;1.10;;
28629;SDS011;15817;42.130;24.762;2023-03-12T08:33:43;2.65;;;1.23;;
28629;SDS011;15817;42.130;24.762;2023-03-12T08:36:35;1.42;;;1.00;;
28629;SDS011;15817;42.130;24.762;2023-03-12T08:42:33;3.72;;;1.35;;
28629;SDS011;15817;42.130;24.762;2023-03-12T08:48:59;1.52;;;1.27;;
28629;SDS011;15817;42.130;24.762;2023-03-12T08:51:25;1.63;;;1.20;;
28629;SDS011;15817;42.130;24.762;2023-03-12T08:53:53;1.35;;;1.13;;
28629;SDS011;15817;42.130;24.762;2023-03-12T08:56:27;5.75;;;2.00;;
28629;SDS011;15817;42.130;24.762;2023-03-12T08:58:53;2.33;;;1.20;;
28629;SDS011;15817;42.130;24.762;2023-03-12T09:01:21;2.17;;;0.93;;
28629;SDS011;15817;42.130;24.762;2023-03-12T09:03:52;7.45;;;2.25;;
28629;SDS011;15817;42.130;24.762;2023-03-12T09:06:22;1.10;;;0.82;;
28629;SDS011;15817;42.130;24.762;2023-03-12T09:08:49;3.20;;;1.10;;
28629;SDS011;15817;42.130;24.762;2023-03-12T09:11:16;3.13;;;1.05;;
28629;SDS011;15817;42.130;24.762;2023-03-12T09:13:47;4.38;;;1.48;;
28629;SDS011;15817;42.130;24.762;2023-03-12T09:16:13;1.27;;;1.05;;
28629;SDS011;15817;42.130;24.762;2023-03-12T09:18:39;2.17;;;1.23;;
28629;SDS011;15817;42.130;24.762;2023-03-12T09:21:08;4.53;;;2.20;;
28629;SDS011;15817;42.130;24.762;2023-03-12T09:23:34;5.20;;;1.40;;
28629;SDS011;15817;42.130;24.762;2023-03-12T09:26:00;6.57;;;2.55;;
28629;SDS011;15817;42.130;24.762;2023-03-12T09:28:28;1.60;;;1.10;;
28629;SDS011;15817;42.130;24.762;2023-03-12T09:30:59;3.08;;;1.33;;
28629;SDS011;15817;42.130;24.762;2023-03-12T09:33:32;1.75;;;1.08;;
28629;SDS011;15817;42.130;24.762;2023-03-12T09:36:00;2.10;;;1.08;;
28629;SDS011;15817;42.130;24.762;2023-03-12T09:38:29;3.67;;;1.15;;
28629;SDS011;15817;42.130;24.762;2023-03-12T09:40:56;2.13;;;1.48;;
28629;SDS011;15817;42.130;24.762;2023-03-12T09:43:31;3.05;;;1.20;;
28629;SDS011;15817;42.130;24.762;2023-03-12T09:46:11;2.70;;;1.13;;
28629;SDS011;15817;42.130;24.762;2023-03-12T09:48:50;1.90;;;1.50;;
28629;SDS011;15817;42.130;24.762;2023-03-12T09:54:46;1.27;;;1.10;;
28629;SDS011;15817;42.130;24.762;2023-03-12T09:57:41;1.65;;;1.27;;
28629;SDS011;15817;42.130;24.762;2023-03-12T10:00:16;0.98;;;0.85;;
28629;SDS011;15817;42.130;24.762;2023-03-12T10:02:50;2.45;;;1.30;;
28629;SDS011;15817;42.130;24.762;2023-03-12T10:14:42;1.48;;;1.30;;
28629;SDS011;15817;42.130;24.762;2023-03-12T10:28:42;2.15;;;1.10;;
28629;SDS011;15817;42.130;24.762;2023-03-12T10:31:21;2.22;;;1.00;;
28629;SDS011;15817;42.130;24.762;2023-03-12T10:33:58;3.00;;;1.42;;
28629;SDS011;15817;42.130;24.762;2023-03-12T10:36:35;2.17;;;1.20;;
28629;SDS011;15817;42.130;24.762;2023-03-12T10:39:26;2.97;;;1.60;;
28629;SDS011;15817;42.130;24.762;2023-03-12T10:42:00;3.40;;;1.40;;
28629;SDS011;15817;42.130;24.762;2023-03-12T10:44:25;3.13;;;1.58;;
28629;SDS011;15817;42.130;24.762;2023-03-12T10:49:51;3.35;;;1.85;;
28629;SDS011;15817;42.130;24.762;2023-03-12T10:52:26;2.25;;;1.30;;
28629;SDS011;15817;42.130;24.762;2023-03-12T10:55:10;7.50;;;1.50;;
28629;SDS011;15817;42.130;24.762;2023-03-12T10:58:03;2.22;;;1.40;;
28629;SDS011;15817;42.130;24.762;2023-03-12T11:00:45;3.42;;;1.23;;
28629;SDS011;15817;42.130;24.762;2023-03-12T11:03:42;2.10;;;1.30;;
28629;SDS011;15817;42.130;24.762;2023-03-12T11:06:31;2.60;;;1.50;;
28629;SDS011;15817;42.130;24.762;2023-03-12T11:09:18;2.38;;;1.30;;
28629;SDS011;15817;42.130;24.762;2023-03-12T11:12:27;2.95;;;1.65;;
28629;SDS011;15817;42.130;24.762;2023-03-12T11:14:57;3.67;;;2.00;;
28629;SDS011;15817;42.130;24.762;2023-03-12T11:17:30;4.13;;;1.52;;
28629;SDS011;15817;42.130;24.762;2023-03-12T11:19:57;1.88;;;1.63;;
28629;SDS011;15817;42.130;24.762;2023-03-12T11:22:30;5.97;;;3.28;;
28629;SDS011;15817;42.130;24.762;2023-03-12T11:27:59;3.33;;;1.92;;
28629;SDS011;15817;42.130;24.762;2023-03-12T11:30:56;4.60;;;1.80;;
28629;SDS011;15817;42.130;24.762;2023-03-12T11:33:27;6.30;;;2.38;;
28629;SDS011;15817;42.130;24.762;2023-03-12T11:35:57;5.03;;;1.50;;
28629;SDS011;15817;42.130;24.762;2023-03-12T11:39:02;2.10;;;1.23;;
28629;SDS011;15817;42.130;24.762;2023-03-12T11:41:55;0.98;;;0.90;;
28629;SDS011;15817;42.130;24.762;2023-03-12T11:44:52;1.55;;;1.40;;
28629;SDS011;15817;42.130;24.762;2023-03-12T11:57:16;2.25;;;1.10;;
28629;SDS011;15817;42.130;24.762;2023-03-12T12:16:25;4.32;;;1.30;;
28629;SDS011;15817;42.130;24.762;2023-03-12T12:22:07;1.67;;;1.02;;
28629;SDS011;15817;42.130;24.762;2023-03-12T12:43:45;3.13;;;1.40;;
28629;SDS011;15817;42.130;24.762;2023-03-12T12:46:34;1.63;;;1.17;;
28629;SDS011;15817;42.130;24.762;2023-03-12T12:49:13;3.65;;;1.25;;
28629;SDS011;15817;42.130;24.762;2023-03-12T12:52:10;2.45;;;1.50;;
28629;SDS011;15817;42.130;24.762;2023-03-12T12:55:09;2.30;;;1.10;;
28629;SDS011;15817;42.130;24.762;2023-03-12T13:01:08;2.40;;;0.93;;
28629;SDS011;15817;42.130;24.762;2023-03-12T13:03:35;2.33;;;1.10;;
28629;SDS011;15817;42.130;24.762;2023-03-12T13:06:05;1.40;;;1.00;;
28629;SDS011;15817;42.130;24.762;2023-03-12T13:09:14;1.85;;;1.25;;
28629;SDS011;15817;42.130;24.762;2023-03-12T13:18:30;2.83;;;1.00;;
28629;SDS011;15817;42.130;24.762;2023-03-12T13:21:21;1.20;;;0.90;;
28629;SDS011;15817;42.130;24.762;2023-03-12T13:24:25;1.73;;;1.20;;
28629;SDS011;15817;42.130;24.762;2023-03-12T13:39:56;3.80;;;1.42;;
28629;SDS011;15817;42.130;24.762;2023-03-12T13:49:05;1.90;;;1.15;;
28629;SDS011;15817;42.130;24.762;2023-03-12T13:57:54;1.45;;;0.98;;
28629;SDS011;15817;42.130;24.762;2023-03-12T14:03:42;2.55;;;1.20;;
28629;SDS011;15817;42.130;24.762;2023-03-12T14:06:23;1.95;;;1.10;;
28629;SDS011;15817;42.130;24.762;2023-03-12T14:18:43;1.40;;;0.90;;
28629;SDS011;15817;42.130;24.762;2023-03-12T14:21:14;1.50;;;0.93;;
28629;SDS011;15817;42.130;24.762;2023-03-12T14:23:55;2.58;;;1.20;;
28629;SDS011;15817;42.130;24.762;2023-03-12T14:26:34;1.58;;;1.20;;
28629;SDS011;15817;42.130;24.762;2023-03-12T14:31:31;4.03;;;1.05;;
28629;SDS011;15817;42.130;24.762;2023-03-12T14:39:43;1.67;;;1.05;;
28629;SDS011;15817;42.130;24.762;2023-03-12T14:42:45;1.50;;;0.90;;
28629;SDS011;15817;42.130;24.762;2023-03-12T14:45:25;2.15;;;1.23;;
28629;SDS011;15817;42.130;24.762;2023-03-12T14:48:11;3.20;;;0.90;;
28629;SDS011;15817;42.130;24.762;2023-03-12T14:51:01;2.10;;;1.17;;
28629;SDS011;15817;42.130;24.762;2023-03-12T14:53:39;1.42;;;1.10;;
28629;SDS011;15817;42.130;24.762;2023-03-12T14:56:21;2.88;;;1.42;;
28629;SDS011;15817;42.130;24.762;2023-03-12T14:59:05;1.73;;;1.20;;
28629;SDS011;15817;42.130;24.762;2023-03-12T15:02:13;1.10;;;1.00;;
28629;SDS011;15817;42.130;24.762;2023-03-12T15:04:41;4.50;;;1.20;;
28629;SDS011;15817;42.130;24.762;2023-03-12T15:07:08;1.25;;;1.00;;
28629;SDS011;15817;42.130;24.762;2023-03-12T15:09:41;2.17;;;0.90;;
28629;SDS011;15817;42.130;24.762;2023-03-12T15:12:21;0.95;;;0.85;;
28629;SDS011;15817;42.130;24.762;2023-03-12T15:14:53;2.97;;;1.23;;
28629;SDS011;15817;42.130;24.762;2023-03-12T15:17:32;1.83;;;1.05;;
28629;SDS011;15817;42.130;24.762;2023-03-12T15:20:17;2.03;;;1.08;;
28629;SDS011;15817;42.130;24.762;2023-03-12T15:22:57;1.13;;;0.90;;
28629;SDS011;15817;42.130;24.762;2023-03-12T15:25:28;1.40;;;1.10;;
28629;SDS011;15817;42.130;24.762;2023-03-12T15:31:14;3.70;;;1.10;;
28629;SDS011;15817;42.130;24.762;2023-03-12T15:33:44;1.27;;;1.00;;
28629;SDS011;15817;42.130;24.762;2023-03-12T15:36:30;1.50;;;1.20;;
28629;SDS011;15817;42.130;24.762;2023-03-12T15:39:03;2.58;;;1.30;;
28629;SDS011;15817;42.130;24.762;2023-03-12T15:41:59;1.38;;;1.00;;
28629;SDS011;15817;42.130;24.762;2023-03-12T15:44:58;1.98;;;1.40;;
28629;SDS011;15817;42.130;24.762;2023-03-12T15:50:57;1.50;;;1.20;;
28629;SDS011;15817;42.130;24.762;2023-03-12T15:53:33;1.70;;;1.40;;
28629;SDS011;15817;42.130;24.762;2023-03-12T15:56:00;2.47;;;1.50;;
28629;SDS011;15817;42.130;24.762;2023-03-12T15:58:33;3.83;;;1.50;;
28629;SDS011;15817;42.130;24.762;2023-03-12T16:01:07;1.40;;;1.30;;
28629;SDS011;15817;42.130;24.762;2023-03-12T16:03:40;2.53;;;1.38;;
28629;SDS011;15817;42.130;24.762;2023-03-12T16:06:24;1.40;;;1.13;;
28629;SDS011;15817;42.130;24.762;2023-03-12T16:09:04;3.13;;;1.60;;
28629;SDS011;15817;42.130;24.762;2023-03-12T16:12:04;5.78;;;1.52;;
28629;SDS011;15817;42.130;24.762;2023-03-12T16:14:36;2.67;;;1.77;;
28629;SDS011;15817;42.130;24.762;2023-03-12T16:17:08;6.93;;;1.60;;
28629;SDS011;15817;42.130;24.762;2023-03-12T16:19:37;2.30;;;1.70;;
28629;SDS011;15817;42.130;24.762;2023-03-12T16:22:12;2.42;;;1.80;;
28629;SDS011;15817;42.130;24.762;2023-03-12T16:24:49;2.53;;;1.58;;
28629;SDS011;15817;42.130;24.762;2023-03-12T16:27:17;5.30;;;1.80;;
28629;SDS011;15817;42.130;24.762;2023-03-12T16:29:49;5.78;;;1.90;;
28629;SDS011;15817;42.130;24.762;2023-03-12T16:32:15;3.83;;;1.70;;
28629;SDS011;15817;42.130;24.762;2023-03-12T16:34:42;4.78;;;2.30;;
28629;SDS011;15817;42.130;24.762;2023-03-12T16:37:22;6.03;;;2.88;;
28629;SDS011;15817;42.130;24.762;2023-03-12T16:39:57;5.97;;;2.10;;
28629;SDS011;15817;42.130;24.762;2023-03-12T16:42:33;4.10;;;2.38;;
28629;SDS011;15817;42.130;24.762;2023-03-12T16:48:50;4.65;;;2.45;;
28629;SDS011;15817;42.130;24.762;2023-03-12T16:51:26;4.03;;;2.63;;
28629;SDS011;15817;42.130;24.762;2023-03-12T16:54:04;4.50;;;2.80;;
28629;SDS011;15817;42.130;24.762;2023-03-12T16:56:38;7.53;;;3.20;;
28629;SDS011;15817;42.130;24.762;2023-03-12T16:59:26;5.88;;;3.85;;
28629;SDS011;15817;42.130;24.762;2023-03-12T17:02:32;11.45;;;4.03;;
28629;SDS011;15817;42.130;24.762;2023-03-12T17:05:02;5.00;;;2.95;;
28629;SDS011;15817;42.130;24.762;2023-03-12T17:07:42;5.15;;;2.40;;
28629;SDS011;15817;42.130;24.762;2023-03-12T17:10:21;6.57;;;2.75;;
28629;SDS011;15817;42.130;24.762;2023-03-12T17:12:51;4.38;;;1.55;;
28629;SDS011;15817;42.130;24.762;2023-03-12T17:19:30;1.60;;;1.27;;
28629;SDS011;15817;42.130;24.762;2023-03-12T17:26:23;2.13;;;1.40;;
28629;SDS011;15817;42.130;24.762;2023-03-12T17:32:45;3.47;;;1.40;;
28629;SDS011;15817;42.130;24.762;2023-03-12T17:35:13;2.17;;;1.92;;
28629;SDS011;15817;42.130;24.762;2023-03-12T17:38:11;2.95;;;2.22;;
28629;SDS011;15817;42.130;24.762;2023-03-12T17:41:16;2.78;;;1.92;;
28629;SDS011;15817;42.130;24.762;2023-03-12T17:47:01;5.30;;;2.55;;
28629;SDS011;15817;42.130;24.762;2023-03-12T17:49:39;3.15;;;2.20;;
28629;SDS011;15817;42.130;24.762;2023-03-12T17:52:22;2.72;;;1.70;;
28629;SDS011;15817;42.130;24.762;2023-03-12T17:58:18;2.58;;;1.67;;
28629;SDS011;15817;42.130;24.762;2023-03-12T18:00:51;2.78;;;1.58;;
28629;SDS011;15817;42.130;24.762;2023-03-12T18:03:28;2.78;;;1.67;;
28629;SDS011;15817;42.130;24.762;2023-03-12T18:05:54;4.78;;;2.03;;
28629;SDS011;15817;42.130;24.762;2023-03-12T18:08:22;1.90;;;1.50;;
28629;SDS011;15817;42.130;24.762;2023-03-12T18:10:48;3.05;;;1.55;;
28629;SDS011;15817;42.130;24.762;2023-03-12T18:13:22;4.22;;;1.27;;
28629;SDS011;15817;42.130;24.762;2023-03-12T18:16:13;3.35;;;1.75;;
28629;SDS011;15817;42.130;24.762;2023-03-12T18:18:51;2.95;;;1.73;;
28629;SDS011;15817;42.130;24.762;2023-03-12T18:21:53;2.28;;;1.50;;
28629;SDS011;15817;42.130;24.762;2023-03-12T18:27:39;2.30;;;1.55;;